Time;durP1;ratioP1;P1;durP2;ratioP2;P2;SDS_P1;SDS_P2;PMS_P1;PMS_P2;Temp;Humidity;BMP_temperature;BMP_pressure;BME280_temperature;BME280_humidity;BME280_pressure;Samples;Min_cycle;Max_cycle;Signal;HPM_P1;HPM_P2
2023/12/05 00:01:08;;;;;;;;;;;;;;;;;;5135195;27;19927;-73
2023/12/05 00:03:34;;;;;;;;;;;;;;;;;;5134101;27;20436;-73
2023/12/05 00:06:00;;;;;;;;;;;;;;;;;;5135338;27;19927;-74
2023/12/05 00:08:26;;;;;;;;;;;;;;;;;;5135387;27;19985;-73
2023/12/05 00:10:53;;;;;;;;;;;;;;;;;;5135285;27;19976;-73
2023/12/05 00:13:19;;;;;;;;;;;;;;;;;;5133357;27;19924;-72
2023/12/05 00:15:45;;;;;;;;;;;;;;;;;;5122371;27;20298;-74
2023/12/05 00:18:11;;;;;;;;;;;;;;;;;;5114332;28;19927;-73
2023/12/05 00:20:38;;;;;;;;;;;;;;;;;;5114780;28;19969;-74
2023/12/05 00:23:04;;;;;;;;;;;;;;;;;;5114428;28;19928;-73
2023/12/05 00:25:30;;;;;;;;;;;;;;;;;;5121759;27;19931;-73
2023/12/05 00:27:56;;;;;;;;;;;;;;;;;;5115377;27;20457;-73
2023/12/05 00:30:23;;;;;;;;;;;;;;;;;;5134996;27;20014;-73
2023/12/05 00:32:49;;;;;;;;;;;;;;;;;;5134426;27;20018;-73
2023/12/05 00:35:18;;;;;;;;;;;;;;;;;;5131904;27;20300;-74
2023/12/05 00:37:44;;;;;;;;;;;;;;;;;;5114030;28;19962;-73
2023/12/05 00:40:10;;;;;;;;;;;;;;;;;;5114000;28;19928;-72
2023/12/05 00:42:37;;;;;;;;;;;;;;;;;;5114046;28;20388;-72
2023/12/05 00:45:03;;;;;;;;;;;;;;;;;;5131240;27;19931;-73
2023/12/05 00:47:29;;;;;;;;;;;;;;;;;;5116562;27;19977;-72
2023/12/05 00:49:56;;;;;;;;;;;;;;;;;;5114099;28;20365;-73
2023/12/05 00:52:22;;;;;;;;;;;;;;;;;;5113710;28;19931;-72
2023/12/05 00:54:48;;;;;;;;;;;;;;;;;;5113850;28;19931;-72
2023/12/05 00:57:14;;;;;;;;;;;;;;;;;;5121359;27;20318;-72
2023/12/05 00:59:41;;;;;;;;;;;;;;;;;;5117531;27;20014;-73
2023/12/05 01:02:09;;;;;;;;;;;;;;;;;;5131905;27;20292;-73
2023/12/05 01:04:35;;;;;;;;;;;;;;;;;;5122345;27;19982;-73
2023/12/05 01:07:04;;;;;;;;;;;;;;;;;;5128626;27;19924;-73
2023/12/05 01:09:30;;;;;;;;;;;;;;;;;;5113329;28;19928;-73
2023/12/05 01:11:56;;;;;;;;;;;;;;;;;;5113619;28;19927;-73
2023/12/05 01:14:23;;;;;;;;;;;;;;;;;;5112487;28;19924;-73
2023/12/05 01:16:49;;;;;;;;;;;;;;;;;;5125888;27;19968;-72
2023/12/05 01:19:15;;;;;;;;;;;;;;;;;;5133479;27;20590;-73
2023/12/05 01:21:41;;;;;;;;;;;;;;;;;;5134089;27;19969;-73
2023/12/05 01:24:08;;;;;;;;;;;;;;;;;;5133686;27;19973;-72
2023/12/05 01:26:34;;;;;;;;;;;;;;;;;;5133000;27;19927;-72
2023/12/05 01:29:02;;;;;;;;;;;;;;;;;;5116455;27;20387;-73
2023/12/05 01:31:28;;;;;;;;;;;;;;;;;;5112987;28;20010;-72
2023/12/05 01:33:55;;;;;;;;;;;;;;;;;;5118213;27;19979;-73
2023/12/05 01:36:22;;;;;;;;;;;;;;;;;;5133913;27;19931;-72
2023/12/05 01:38:48;;;;;;;;;;;;;;;;;;5120860;27;19931;-73
2023/12/05 01:41:15;;;;;;;;;;;;;;;;;;5112802;28;19977;-72
2023/12/05 01:43:41;;;;;;;;;;;;;;;;;;5112822;28;19927;-72
2023/12/05 01:46:07;;;;;;;;;;;;;;;;;;5112740;28;20399;-72
2023/12/05 01:48:34;;;;;;;;;;;;;;;;;;5120418;27;19927;-72
2023/12/05 01:51:00;;;;;;;;;;;;;;;;;;5116517;27;20018;-73
2023/12/05 01:53:26;;;;;;;;;;;;;;;;;;5133104;27;20268;-72
2023/12/05 01:55:52;;;;;;;;;;;;;;;;;;5133226;27;19996;-72
2023/12/05 01:58:19;;;;;;;;;;;;;;;;;;5131259;27;19930;-72
2023/12/05 02:00:46;;;;;;;;;;;;;;;;;;5112387;28;20446;-72
2023/12/05 02:03:12;;;;;;;;;;;;;;;;;;5112455;28;20345;-73
2023/12/05 02:05:38;;;;;;;;;;;;;;;;;;5112701;28;19998;-72
2023/12/05 02:08:04;;;;;;;;;;;;;;;;;;5115827;27;19927;-72
2023/12/05 02:10:31;;;;;;;;;;;;;;;;;;5131179;27;19976;-72
2023/12/05 02:12:57;;;;;;;;;;;;;;;;;;5132873;27;19988;-73
2023/12/05 02:15:23;;;;;;;;;;;;;;;;;;5132970;27;20374;-73
2023/12/05 02:17:49;;;;;;;;;;;;;;;;;;5132893;27;19923;-72
2023/12/05 02:20:16;;;;;;;;;;;;;;;;;;5121066;27;19928;-72
2023/12/05 02:22:42;;;;;;;;;;;;;;;;;;5112119;28;20493;-73
2023/12/05 02:25:08;;;;;;;;;;;;;;;;;;5112032;28;19932;-72
2023/12/05 02:27:34;;;;;;;;;;;;;;;;;;5130918;27;19923;-73
2023/12/05 02:30:01;;;;;;;;;;;;;;;;;;5126140;27;19924;-73
2023/12/05 02:32:27;;;;;;;;;;;;;;;;;;5112061;28;19973;-73
2023/12/05 02:34:53;;;;;;;;;;;;;;;;;;5112137;28;19948;-72
2023/12/05 02:37:20;;;;;;;;;;;;;;;;;;5112004;28;19924;-72
2023/12/05 02:39:46;;;;;;;;;;;;;;;;;;5120080;28;19931;-73
2023/12/05 02:42:12;;;;;;;;;;;;;;;;;;5121537;27;19927;-72
2023/12/05 02:44:39;;;;;;;;;;;;;;;;;;5132584;28;19980;-74
2023/12/05 02:47:05;;;;;;;;;;;;;;;;;;5132651;28;20334;-73
2023/12/05 02:49:31;;;;;;;;;;;;;;;;;;5131621;28;19935;-73
2023/12/05 02:51:57;;;;;;;;;;;;;;;;;;5116941;28;19928;-73
2023/12/05 02:54:24;;;;;;;;;;;;;;;;;;5111873;28;20368;-73
2023/12/05 02:56:50;;;;;;;;;;;;;;;;;;5112034;28;19931;-72
2023/12/05 02:59:16;;;;;;;;;;;;;;;;;;5126191;27;19936;-72
2023/12/05 03:01:42;;;;;;;;;;;;;;;;;;5121619;28;19930;-72
2023/12/05 03:04:09;;;;;;;;;;;;;;;;;;5111855;28;19924;-72
2023/12/05 03:06:35;;;;;;;;;;;;;;;;;;5112027;28;19984;-72
2023/12/05 03:09:03;;;;;;;;;;;;;;;;;;5111724;28;19924;-72
2023/12/05 03:11:29;;;;;;;;;;;;;;;;;;5119610;28;19924;-72
2023/12/05 03:13:55;;;;;;;;;;;;;;;;;;5119885;27;19969;-72
2023/12/05 03:16:22;;;;;;;;;;;;;;;;;;5132308;28;19927;-74
2023/12/05 03:18:48;;;;;;;;;;;;;;;;;;5132320;28;20538;-72
2023/12/05 03:21:14;;;;;;;;;;;;;;;;;;5131553;28;19923;-73
2023/12/05 03:23:40;;;;;;;;;;;;;;;;;;5111726;28;19931;-73
2023/12/05 03:26:07;;;;;;;;;;;;;;;;;;5111790;28;19931;-74
2023/12/05 03:28:33;;;;;;;;;;;;;;;;;;5112261;28;20342;-74
2023/12/05 03:30:59;;;;;;;;;;;;;;;;;;5131661;28;19976;-74
2023/12/05 03:33:25;;;;;;;;;;;;;;;;;;5117040;28;19937;-73
2023/12/05 03:35:52;;;;;;;;;;;;;;;;;;5111518;28;20489;-73
2023/12/05 03:38:18;;;;;;;;;;;;;;;;;;5113911;28;19923;-73
2023/12/05 03:40:44;;;;;;;;;;;;;;;;;;5115431;28;19977;-73
2023/12/05 03:43:11;;;;;;;;;;;;;;;;;;5122571;27;19924;-73
2023/12/05 03:45:37;;;;;;;;;;;;;;;;;;5127280;27;19954;-73
2023/12/05 03:48:03;;;;;;;;;;;;;;;;;;5135770;27;19923;-73
2023/12/05 03:50:29;;;;;;;;;;;;;;;;;;5135489;27;19924;-74
2023/12/05 03:52:56;;;;;;;;;;;;;;;;;;5130667;27;20332;-73
2023/12/05 03:55:22;;;;;;;;;;;;;;;;;;5114884;28;19932;-73
2023/12/05 03:57:48;;;;;;;;;;;;;;;;;;5114875;28;19928;-73
2023/12/05 04:00:15;;;;;;;;;;;;;;;;;;5114990;28;20399;-73
2023/12/05 04:02:41;;;;;;;;;;;;;;;;;;5123367;27;19924;-73
2023/12/05 04:05:07;;;;;;;;;;;;;;;;;;5116038;27;20000;-74
2023/12/05 04:07:34;;;;;;;;;;;;;;;;;;5114731;28;19924;-72
2023/12/05 04:10:00;;;;;;;;;;;;;;;;;;5114796;28;19977;-75
2023/12/05 04:12:26;;;;;;;;;;;;;;;;;;5115435;27;19927;-72
2023/12/05 04:14:52;;;;;;;;;;;;;;;;;;5121160;27;19946;-73
2023/12/05 04:17:19;;;;;;;;;;;;;;;;;;5114361;28;19931;-73
2023/12/05 04:19:45;;;;;;;;;;;;;;;;;;5121067;27;19928;-73
2023/12/05 04:22:11;;;;;;;;;;;;;;;;;;5133473;27;20725;-73
2023/12/05 04:24:38;;;;;;;;;;;;;;;;;;5125870;27;19924;-73
2023/12/05 04:27:04;;;;;;;;;;;;;;;;;;5114049;28;19985;-72
2023/12/05 04:29:30;;;;;;;;;;;;;;;;;;5114019;28;19928;-73
2023/12/05 04:31:59;;;;;;;;;;;;;;;;;;5114357;27;19938;-74
2023/12/05 04:34:25;;;;;;;;;;;;;;;;;;5121846;27;19977;-73
2023/12/05 04:36:51;;;;;;;;;;;;;;;;;;5114007;28;20505;-73
2023/12/05 04:39:17;;;;;;;;;;;;;;;;;;5118948;27;20021;-73
2023/12/05 04:41:44;;;;;;;;;;;;;;;;;;5134582;27;19976;-73
2023/12/05 04:44:10;;;;;;;;;;;;;;;;;;5133693;27;19927;-73
2023/12/05 04:46:36;;;;;;;;;;;;;;;;;;5115636;27;19923;-72
2023/12/05 04:49:03;;;;;;;;;;;;;;;;;;5113972;28;20437;-73
2023/12/05 04:51:29;;;;;;;;;;;;;;;;;;5114033;28;20342;-72
2023/12/05 04:53:55;;;;;;;;;;;;;;;;;;5114192;27;20346;-73
2023/12/05 04:56:22;;;;;;;;;;;;;;;;;;5132996;27;19980;-73
2023/12/05 04:58:48;;;;;;;;;;;;;;;;;;5134115;27;19931;-72
2023/12/05 05:01:14;;;;;;;;;;;;;;;;;;5134316;27;19924;-73
2023/12/05 05:03:41;;;;;;;;;;;;;;;;;;5117360;27;19969;-72
2023/12/05 05:06:07;;;;;;;;;;;;;;;;;;5121202;27;19932;-73
2023/12/05 05:08:33;;;;;;;;;;;;;;;;;;5113318;28;19927;-72
2023/12/05 05:10:59;;;;;;;;;;;;;;;;;;5113434;28;19928;-72
2023/12/05 05:13:26;;;;;;;;;;;;;;;;;;5123583;27;19923;-72
2023/12/05 05:15:52;;;;;;;;;;;;;;;;;;5130380;27;19927;-73
2023/12/05 05:18:18;;;;;;;;;;;;;;;;;;5113177;28;20022;-72
2023/12/05 05:20:44;;;;;;;;;;;;;;;;;;5113213;28;20406;-72
2023/12/05 05:23:11;;;;;;;;;;;;;;;;;;5113203;28;19927;-72
2023/12/05 05:25:37;;;;;;;;;;;;;;;;;;5117806;27;19931;-73
2023/12/05 05:28:03;;;;;;;;;;;;;;;;;;5118180;27;19930;-72
2023/12/05 05:30:30;;;;;;;;;;;;;;;;;;5133808;27;19923;-72
2023/12/05 05:32:56;;;;;;;;;;;;;;;;;;5133723;27;19927;-72
2023/12/05 05:35:22;;;;;;;;;;;;;;;;;;5132855;27;19936;-72
2023/12/05 05:37:48;;;;;;;;;;;;;;;;;;5120367;27;19947;-72
2023/12/05 05:40:15;;;;;;;;;;;;;;;;;;5113042;28;19931;-72
2023/12/05 05:42:41;;;;;;;;;;;;;;;;;;5112840;28;19923;-72
2023/12/05 05:45:07;;;;;;;;;;;;;;;;;;5121753;27;20395;-72
2023/12/05 05:47:33;;;;;;;;;;;;;;;;;;5117295;27;19923;-72
2023/12/05 05:50:00;;;;;;;;;;;;;;;;;;5126940;27;19928;-72
2023/12/05 05:52:26;;;;;;;;;;;;;;;;;;5122969;27;20299;-72
2023/12/05 05:54:52;;;;;;;;;;;;;;;;;;5132697;27;19935;-72
2023/12/05 05:57:19;;;;;;;;;;;;;;;;;;5126101;27;19929;-72
2023/12/05 05:59:45;;;;;;;;;;;;;;;;;;5113429;27;20334;-71
2023/12/05 06:02:11;;;;;;;;;;;;;;;;;;5126222;27;19928;-72
2023/12/05 06:04:37;;;;;;;;;;;;;;;;;;5129042;27;19939;-72
2023/12/05 06:07:04;;;;;;;;;;;;;;;;;;5126817;27;19924;-72
2023/12/05 06:09:30;;;;;;;;;;;;;;;;;;5110801;27;20433;-71
2023/12/05 06:11:56;;;;;;;;;;;;;;;;;;5120172;27;19928;-71
2023/12/05 06:14:22;;;;;;;;;;;;;;;;;;5123907;27;19923;-71
2023/12/05 06:16:49;;;;;;;;;;;;;;;;;;5123342;27;19936;-73
2023/12/05 06:19:15;;;;;;;;;;;;;;;;;;5119918;27;20289;-72
2023/12/05 06:21:41;;;;;;;;;;;;;;;;;;5117645;27;19924;-72
2023/12/05 06:24:08;;;;;;;;;;;;;;;;;;5121617;27;19984;-73
2023/12/05 06:26:35;;;;;;;;;;;;;;;;;;5123540;27;19930;-73
2023/12/05 06:29:01;;;;;;;;;;;;;;;;;;5127396;27;20442;-73
2023/12/05 06:31:28;;;;;;;;;;;;;;;;;;5124330;27;19932;-73
2023/12/05 06:33:54;;;;;;;;;;;;;;;;;;5122390;28;20400;-73
2023/12/05 06:36:20;;;;;;;;;;;;;;;;;;5125396;28;19938;-73
2023/12/05 06:38:47;;;;;;;;;;;;;;;;;;5122043;28;19928;-73
2023/12/05 06:41:13;;;;;;;;;;;;;;;;;;5124611;28;19934;-73
2023/12/05 06:43:39;;;;;;;;;;;;;;;;;;5122898;28;19928;-73
2023/12/05 06:46:05;;;;;;;;;;;;;;;;;;5110522;28;20036;-73
2023/12/05 06:48:32;;;;;;;;;;;;;;;;;;5122489;28;19935;-73
2023/12/05 06:50:58;;;;;;;;;;;;;;;;;;5131533;28;19927;-73
2023/12/05 06:53:24;;;;;;;;;;;;;;;;;;5131398;28;19927;-73
2023/12/05 06:55:51;;;;;;;;;;;;;;;;;;5132238;28;19968;-73
2023/12/05 06:58:18;;;;;;;;;;;;;;;;;;5132198;28;19931;-73
2023/12/05 07:00:44;;;;;;;;;;;;;;;;;;5127060;28;20459;-73
2023/12/05 07:03:11;;;;;;;;;;;;;;;;;;5116960;28;20341;-73
2023/12/05 07:05:38;;;;;;;;;;;;;;;;;;5121393;28;19976;-73
2023/12/05 07:08:06;;;;;;;;;;;;;;;;;;5132049;28;19923;-72
2023/12/05 07:10:33;;;;;;;;;;;;;;;;;;5128519;28;19927;-73
2023/12/05 07:12:59;;;;;;;;;;;;;;;;;;5133747;27;19945;-72
2023/12/05 07:15:25;;;;;;;;;;;;;;;;;;5135722;27;20375;-73
2023/12/05 07:17:51;;;;;;;;;;;;;;;;;;5125081;27;19924;-74
2023/12/05 07:20:18;;;;;;;;;;;;;;;;;;5134789;27;20383;-74
2023/12/05 07:22:44;;;;;;;;;;;;;;;;;;5126750;27;19931;-73
2023/12/05 07:25:10;;;;;;;;;;;;;;;;;;5135938;27;19924;-73
2023/12/05 07:27:36;;;;;;;;;;;;;;;;;;5132865;27;20055;-73
2023/12/05 07:30:03;;;;;;;;;;;;;;;;;;5134886;27;19936;-73
2023/12/05 07:32:29;;;;;;;;;;;;;;;;;;5135363;27;19954;-73
2023/12/05 07:34:55;;;;;;;;;;;;;;;;;;5135728;27;19924;-74
2023/12/05 07:37:22;;;;;;;;;;;;;;;;;;5128188;27;19928;-72
2023/12/05 07:39:49;;;;;;;;;;;;;;;;;;5126519;27;19927;-73
2023/12/05 07:42:15;;;;;;;;;;;;;;;;;;5125747;27;19924;-73
2023/12/05 07:44:41;;;;;;;;;;;;;;;;;;5133356;27;20371;-74
2023/12/05 07:47:08;;;;;;;;;;;;;;;;;;5135579;27;19934;-73
2023/12/05 07:49:34;;;;;;;;;;;;;;;;;;5125644;27;19924;-74
2023/12/05 07:52:00;;;;;;;;;;;;;;;;;;5122133;27;19977;-73
2023/12/05 07:54:27;;;;;;;;;;;;;;;;;;5131005;27;19927;-73
2023/12/05 07:56:53;;;;;;;;;;;;;;;;;;5134934;27;20380;-73
2023/12/05 07:59:19;;;;;;;;;;;;;;;;;;5127313;27;19984;-73
2023/12/05 08:01:46;;;;;;;;;;;;;;;;;;5120600;27;19932;-74
2023/12/05 08:04:12;;;;;;;;;;;;;;;;;;5133984;27;19931;-73
2023/12/05 08:06:39;;;;;;;;;;;;;;;;;;5134866;27;19927;-73
2023/12/05 08:09:06;;;;;;;;;;;;;;;;;;5128305;27;19923;-73
2023/12/05 08:11:32;;;;;;;;;;;;;;;;;;5134071;27;19974;-73
2023/12/05 08:13:58;;;;;;;;;;;;;;;;;;5120288;27;19981;-74
2023/12/05 08:16:24;;;;;;;;;;;;;;;;;;5114451;28;20342;-74
2023/12/05 08:18:51;;;;;;;;;;;;;;;;;;5114134;28;19927;-74
2023/12/05 08:21:17;;;;;;;;;;;;;;;;;;5113881;28;19981;-74
2023/12/05 08:23:43;;;;;;;;;;;;;;;;;;5121061;27;19928;-73
2023/12/05 08:26:09;;;;;;;;;;;;;;;;;;5114513;27;20380;-74
2023/12/05 08:28:37;;;;;;;;;;;;;;;;;;5120696;27;19924;-74
2023/12/05 08:31:03;;;;;;;;;;;;;;;;;;5138380;27;19937;-74
2023/12/05 08:33:29;;;;;;;;;;;;;;;;;;5122633;27;19924;-74
2023/12/05 08:35:55;;;;;;;;;;;;;;;;;;5129600;27;19935;-77
2023/12/05 08:38:22;;;;;;;;;;;;;;;;;;5134187;27;19927;-77
2023/12/05 08:40:48;;;;;;;;;;;;;;;;;;5134815;27;19928;-75
2023/12/05 08:43:14;;;;;;;;;;;;;;;;;;5123798;27;19923;-76
2023/12/05 08:45:41;;;;;;;;;;;;;;;;;;5131692;27;19923;-75
2023/12/05 08:48:07;;;;;;;;;;;;;;;;;;5132982;27;20329;-75
2023/12/05 08:50:33;;;;;;;;;;;;;;;;;;5123992;27;19928;-75
2023/12/05 08:52:59;;;;;;;;;;;;;;;;;;5133134;27;19968;-75
2023/12/05 08:55:26;;;;;;;;;;;;;;;;;;5134505;27;19976;-75
2023/12/05 08:57:52;;;;;;;;;;;;;;;;;;5134098;27;20027;-75
2023/12/05 09:00:18;;;;;;;;;;;;;;;;;;5116537;27;19927;-75
2023/12/05 09:02:44;;;;;;;;;;;;;;;;;;5127780;27;20368;-75
2023/12/05 09:05:11;;;;;;;;;;;;;;;;;;5128935;27;19999;-75
2023/12/05 09:07:37;;;;;;;;;;;;;;;;;;5133872;27;19934;-75
2023/12/05 09:10:03;;;;;;;;;;;;;;;;;;5133732;27;20325;-75
2023/12/05 09:12:29;;;;;;;;;;;;;;;;;;5132986;27;19939;-75
2023/12/05 09:14:56;;;;;;;;;;;;;;;;;;5132936;27;19976;-75
2023/12/05 09:17:22;;;;;;;;;;;;;;;;;;5133417;27;19935;-75
2023/12/05 09:19:50;;;;;;;;;;;;;;;;;;5133566;27;20351;-75
2023/12/05 09:22:16;;;;;;;;;;;;;;;;;;5116610;27;20610;-75
2023/12/05 09:24:43;;;;;;;;;;;;;;;;;;5132304;27;19980;-75
2023/12/05 09:27:09;;;;;;;;;;;;;;;;;;5126707;27;19924;-75
2023/12/05 09:29:35;;;;;;;;;;;;;;;;;;5133465;27;19980;-76
2023/12/05 09:32:01;;;;;;;;;;;;;;;;;;5118521;27;19965;-75
2023/12/05 09:34:28;;;;;;;;;;;;;;;;;;5133054;27;19927;-75
2023/12/05 09:36:54;;;;;;;;;;;;;;;;;;5127868;27;19927;-75
2023/12/05 09:39:20;;;;;;;;;;;;;;;;;;5133183;27;19927;-75
2023/12/05 09:41:47;;;;;;;;;;;;;;;;;;5120126;27;19942;-75
2023/12/05 09:44:13;;;;;;;;;;;;;;;;;;5126228;27;19928;-75
2023/12/05 09:46:39;;;;;;;;;;;;;;;;;;5131931;27;19927;-75
2023/12/05 09:49:05;;;;;;;;;;;;;;;;;;5132890;27;19924;-75
2023/12/05 09:51:32;;;;;;;;;;;;;;;;;;5120116;27;19965;-75
2023/12/05 09:53:58;;;;;;;;;;;;;;;;;;5128885;27;20376;-75
2023/12/05 09:56:24;;;;;;;;;;;;;;;;;;5120949;27;20388;-75
2023/12/05 09:58:51;;;;;;;;;;;;;;;;;;5132595;27;19924;-75
2023/12/05 10:01:17;;;;;;;;;;;;;;;;;;5132233;27;19934;-75
2023/12/05 10:03:43;;;;;;;;;;;;;;;;;;5132701;27;19923;-75
2023/12/05 10:06:10;;;;;;;;;;;;;;;;;;5131632;27;20876;-75
2023/12/05 10:08:37;;;;;;;;;;;;;;;;;;5131832;27;19924;-75
2023/12/05 10:11:04;;;;;;;;;;;;;;;;;;5132522;27;20005;-75
2023/12/05 10:13:30;;;;;;;;;;;;;;;;;;5131706;27;20370;-75
2023/12/05 10:15:58;;;;;;;;;;;;;;;;;;5116300;27;20030;-75
2023/12/05 10:18:24;;;;;;;;;;;;;;;;;;5123853;27;19924;-75
2023/12/05 10:20:50;;;;;;;;;;;;;;;;;;5132352;27;19923;-75
2023/12/05 10:23:16;;;;;;;;;;;;;;;;;;5121925;27;20535;-75
2023/12/05 10:25:43;;;;;;;;;;;;;;;;;;5127783;27;19992;-75
2023/12/05 10:28:09;;;;;;;;;;;;;;;;;;5127172;27;19928;-75
2023/12/05 10:30:37;;;;;;;;;;;;;;;;;;5132437;27;20334;-75
2023/12/05 10:33:03;;;;;;;;;;;;;;;;;;5123567;27;19955;-75
2023/12/05 10:35:30;;;;;;;;;;;;;;;;;;5125651;28;19980;-75
2023/12/05 10:37:56;;;;;;;;;;;;;;;;;;5131626;28;19923;-75
2023/12/05 10:40:22;;;;;;;;;;;;;;;;;;5131943;28;19931;-75
2023/12/05 10:42:49;;;;;;;;;;;;;;;;;;5124853;28;20004;-75
2023/12/05 10:45:15;;;;;;;;;;;;;;;;;;5118287;28;19924;-75
2023/12/05 10:47:41;;;;;;;;;;;;;;;;;;5116580;27;19986;-75
2023/12/05 10:50:07;;;;;;;;;;;;;;;;;;5121335;27;20391;-75
2023/12/05 10:52:34;;;;;;;;;;;;;;;;;;5115999;28;19981;-75
2023/12/05 10:55:00;;;;;;;;;;;;;;;;;;5115893;28;19930;-75
2023/12/05 10:57:27;;;;;;;;;;;;;;;;;;5116018;28;19928;-76
2023/12/05 10:59:53;;;;;;;;;;;;;;;;;;5123139;27;19934;-77
2023/12/05 11:02:19;;;;;;;;;;;;;;;;;;5124375;27;19927;-77
2023/12/05 11:04:45;;;;;;;;;;;;;;;;;;5135423;27;20014;-76
2023/12/05 11:07:12;;;;;;;;;;;;;;;;;;5135731;27;19934;-77
2023/12/05 11:09:38;;;;;;;;;;;;;;;;;;5131890;27;19924;-76
2023/12/05 11:12:04;;;;;;;;;;;;;;;;;;5115992;27;19931;-76
2023/12/05 11:14:30;;;;;;;;;;;;;;;;;;5133004;27;20379;-76
2023/12/05 11:16:57;;;;;;;;;;;;;;;;;;5135702;27;20003;-77
2023/12/05 11:19:23;;;;;;;;;;;;;;;;;;5134842;27;19930;-76
2023/12/05 11:21:49;;;;;;;;;;;;;;;;;;5135241;27;19936;-77
2023/12/05 11:24:15;;;;;;;;;;;;;;;;;;5135645;27;19924;-75
2023/12/05 11:26:42;;;;;;;;;;;;;;;;;;5135619;27;19979;-77
2023/12/05 11:29:08;;;;;;;;;;;;;;;;;;5134249;27;19963;-76
2023/12/05 11:31:36;;;;;;;;;;;;;;;;;;5134117;27;19931;-77
2023/12/05 11:34:02;;;;;;;;;;;;;;;;;;5135650;27;19934;-76
2023/12/05 11:36:29;;;;;;;;;;;;;;;;;;5125362;27;20421;-77
2023/12/05 11:38:55;;;;;;;;;;;;;;;;;;5128683;27;20468;-77
2023/12/05 11:41:21;;;;;;;;;;;;;;;;;;5126044;27;19994;-77
2023/12/05 11:43:48;;;;;;;;;;;;;;;;;;5134194;27;19923;-77
2023/12/05 11:46:14;;;;;;;;;;;;;;;;;;5135379;27;19924;-77
2023/12/05 11:48:40;;;;;;;;;;;;;;;;;;5102090;22;19931;-88
2023/12/05 11:51:07;;;;;;;;;;;;;;;;;;5059242;28;20377;-88
2023/12/05 11:53:35;;;;;;;;;;;;;;;;;;5057280;28;19925;-89
2023/12/05 11:56:02;;;;;;;;;;;;;;;;;;5057604;28;19925;-88
2023/12/05 11:58:28;;;;;;;;;;;;;;;;;;5058106;28;19925;-89
2023/12/05 12:00:54;;;;;;;;;;;;;;;;;;5057290;28;19929;-89
2023/12/05 12:03:21;;;;;;;;;;;;;;;;;;5057736;28;19932;-89
2023/12/05 12:05:47;;;;;;;;;;;;;;;;;;5057946;28;19925;-89
2023/12/05 12:08:14;;;;;;;;;;;;;;;;;;5057845;28;20274;-89
2023/12/05 12:10:40;;;;;;;;;;;;;;;;;;5057387;28;20416;-88
2023/12/05 12:13:06;;;;;;;;;;;;;;;;;;5075880;28;19932;-88
2023/12/05 12:15:33;;;;;;;;;;;;;;;;;;5070514;28;19924;-88
2023/12/05 12:17:59;;;;;;;;;;;;;;;;;;5057986;28;19925;-88
2023/12/05 12:20:25;;;;;;;;;;;;;;;;;;5057370;28;20385;-89
2023/12/05 12:22:52;;;;;;;;;;;;;;;;;;5058477;28;19925;-89
2023/12/05 12:25:18;;;;;;;;;;;;;;;;;;5077480;28;19924;-88
2023/12/05 12:27:45;;;;;;;;;;;;;;;;;;5077899;28;19967;-88
2023/12/05 12:30:14;;;;;;;;;;;;;;;;;;5077240;28;19974;-88
2023/12/05 12:32:41;;;;;;;;;;;;;;;;;;5076591;28;19932;-88
2023/12/05 12:35:07;;;;;;;;;;;;;;;;;;5077160;28;19928;-89
2023/12/05 12:37:34;;;;;;;;;;;;;;;;;;5077493;28;19925;-88
2023/12/05 12:40:00;;;;;;;;;;;;;;;;;;5078428;28;19931;-88
2023/12/05 12:42:27;;;;;;;;;;;;;;;;;;5074914;28;20302;-88
2023/12/05 12:44:53;;;;;;;;;;;;;;;;;;5058576;28;19946;-88
2023/12/05 12:47:19;;;;;;;;;;;;;;;;;;5076909;28;19925;-88
2023/12/05 12:49:46;;;;;;;;;;;;;;;;;;5076387;28;20359;-88
2023/12/05 12:52:12;;;;;;;;;;;;;;;;;;5076876;28;19985;-88
2023/12/05 12:54:40;;;;;;;;;;;;;;;;;;5076515;28;20271;-89
2023/12/05 12:57:06;;;;;;;;;;;;;;;;;;5076389;28;19924;-87
2023/12/05 12:59:33;;;;;;;;;;;;;;;;;;5077342;28;19928;-88
2023/12/05 13:01:59;;;;;;;;;;;;;;;;;;5077247;28;19929;-88
2023/12/05 13:04:25;;;;;;;;;;;;;;;;;;5062679;28;20381;-88
2023/12/05 13:06:52;;;;;;;;;;;;;;;;;;5057101;28;19925;-88
2023/12/05 13:09:19;;;;;;;;;;;;;;;;;;5056079;28;20380;-89
2023/12/05 13:11:45;;;;;;;;;;;;;;;;;;5056460;28;19978;-89
2023/12/05 13:14:11;;;;;;;;;;;;;;;;;;5057071;28;19925;-89
2023/12/05 13:16:38;;;;;;;;;;;;;;;;;;5056763;28;20395;-89
2023/12/05 13:19:04;;;;;;;;;;;;;;;;;;5055863;28;19928;-89
2023/12/05 13:21:30;;;;;;;;;;;;;;;;;;5056453;28;19957;-89
2023/12/05 13:23:57;;;;;;;;;;;;;;;;;;5046324;28;20316;-89
2023/12/05 13:26:23;;;;;;;;;;;;;;;;;;5075536;28;19928;-90
2023/12/05 13:28:49;;;;;;;;;;;;;;;;;;5076095;28;19924;-90
2023/12/05 13:31:16;;;;;;;;;;;;;;;;;;5075571;28;19931;-90
2023/12/05 13:33:43;;;;;;;;;;;;;;;;;;5075829;28;19936;-90
2023/12/05 13:36:09;;;;;;;;;;;;;;;;;;5057233;28;19924;-90
2023/12/05 13:38:36;;;;;;;;;;;;;;;;;;5053946;28;19925;-90
2023/12/05 13:41:02;;;;;;;;;;;;;;;;;;5045605;28;20385;-90
2023/12/05 13:43:29;;;;;;;;;;;;;;;;;;5053062;28;19932;-90
2023/12/05 13:45:55;;;;;;;;;;;;;;;;;;5048794;28;19925;-90
2023/12/05 13:48:21;;;;;;;;;;;;;;;;;;5047613;28;19925;-89
2023/12/05 13:50:48;;;;;;;;;;;;;;;;;;5034813;28;19929;-90
2023/12/05 13:53:14;;;;;;;;;;;;;;;;;;5040620;28;19928;-89
2023/12/05 13:55:40;;;;;;;;;;;;;;;;;;5053875;28;19925;-90
2023/12/05 13:58:07;;;;;;;;;;;;;;;;;;5049146;28;19936;-90
2023/12/05 14:00:33;;;;;;;;;;;;;;;;;;5034679;28;19925;-90
2023/12/05 14:02:59;;;;;;;;;;;;;;;;;;5047012;28;19972;-89
2023/12/05 14:05:26;;;;;;;;;;;;;;;;;;5044039;28;19932;-90
2023/12/05 14:07:52;;;;;;;;;;;;;;;;;;5054609;28;19932;-90
2023/12/05 14:10:18;;;;;;;;;;;;;;;;;;5054392;28;20422;-89
2023/12/05 14:12:45;;;;;;;;;;;;;;;;;;5052945;28;19925;-91
2023/12/05 14:15:11;;;;;;;;;;;;;;;;;;5054956;28;19932;-90
2023/12/05 14:17:37;;;;;;;;;;;;;;;;;;5053936;28;20376;-91
2023/12/05 14:20:06;;;;;;;;;;;;;;;;;;5054095;28;19936;-90
2023/12/05 14:22:32;;;;;;;;;;;;;;;;;;5045072;28;19928;-90
2023/12/05 14:24:58;;;;;;;;;;;;;;;;;;5038399;28;20374;-91
2023/12/05 14:30:09;;;;;;;;;;;;;;;;;;5047786;28;20336;-90
2023/12/05 14:32:37;;;;;;;;;;;;;;;;;;5044148;28;21459;-90
2023/12/05 14:35:05;;;;;;;;;;;;;;;;;;5047247;28;19936;-90
2023/12/05 14:37:31;;;;;;;;;;;;;;;;;;5046322;28;19932;-90
2023/12/05 14:39:57;;;;;;;;;;;;;;;;;;5045700;28;19929;-91
2023/12/05 14:42:23;;;;;;;;;;;;;;;;;;5053925;28;19936;-91
2023/12/05 14:44:50;;;;;;;;;;;;;;;;;;5053791;28;19939;-91
2023/12/05 14:47:16;;;;;;;;;;;;;;;;;;5054118;28;19942;-90
2023/12/05 14:49:42;;;;;;;;;;;;;;;;;;5052570;28;19925;-90
2023/12/05 14:52:09;;;;;;;;;;;;;;;;;;5034963;28;19925;-90
2023/12/05 14:54:35;;;;;;;;;;;;;;;;;;5042660;28;19925;-90
2023/12/05 14:57:01;;;;;;;;;;;;;;;;;;5045987;28;19925;-91
2023/12/05 14:59:28;;;;;;;;;;;;;;;;;;5044991;28;19925;-91
2023/12/05 15:01:54;;;;;;;;;;;;;;;;;;5051320;28;20355;-91
2023/12/05 15:04:20;;;;;;;;;;;;;;;;;;5047501;28;19929;-90
2023/12/05 15:06:46;;;;;;;;;;;;;;;;;;5041776;28;20289;-90
2023/12/05 15:09:13;;;;;;;;;;;;;;;;;;5051306;28;19924;-90
2023/12/05 15:11:39;;;;;;;;;;;;;;;;;;5053032;28;19925;-89
2023/12/05 15:14:05;;;;;;;;;;;;;;;;;;5054445;28;19924;-90
2023/12/05 15:16:32;;;;;;;;;;;;;;;;;;5058268;28;20427;-90
2023/12/05 15:18:58;;;;;;;;;;;;;;;;;;5056552;28;19929;-90
2023/12/05 15:21:24;;;;;;;;;;;;;;;;;;5058576;28;20419;-90
2023/12/05 15:23:50;;;;;;;;;;;;;;;;;;5055105;28;19932;-91
2023/12/05 15:26:17;;;;;;;;;;;;;;;;;;5054147;28;19936;-90
2023/12/05 15:28:45;;;;;;;;;;;;;;;;;;5052904;28;20730;-90
2023/12/05 15:31:11;;;;;;;;;;;;;;;;;;5038159;28;19925;-90
2023/12/05 15:33:37;;;;;;;;;;;;;;;;;;5045271;28;19929;-90
2023/12/05 15:36:04;;;;;;;;;;;;;;;;;;5049754;28;20304;-89
2023/12/05 15:38:31;;;;;;;;;;;;;;;;;;5057091;28;20020;-90
2023/12/05 15:40:57;;;;;;;;;;;;;;;;;;5056756;28;19929;-90
2023/12/05 15:43:23;;;;;;;;;;;;;;;;;;5057073;28;19925;-90
2023/12/05 15:45:49;;;;;;;;;;;;;;;;;;5057060;28;19990;-91
2023/12/05 15:48:16;;;;;;;;;;;;;;;;;;5056869;28;19932;-89
2023/12/05 15:50:42;;;;;;;;;;;;;;;;;;5057420;28;19936;-89
2023/12/05 15:53:09;;;;;;;;;;;;;;;;;;5044193;28;19948;-90
2023/12/05 15:55:36;;;;;;;;;;;;;;;;;;5063116;28;19925;-90
2023/12/05 15:58:02;;;;;;;;;;;;;;;;;;5066642;28;19936;-90
2023/12/05 16:00:31;;;;;;;;;;;;;;;;;;5061558;28;19999;-90
2023/12/05 16:02:57;;;;;;;;;;;;;;;;;;5056601;28;20312;-89
2023/12/05 16:05:24;;;;;;;;;;;;;;;;;;5057198;28;19925;-90
2023/12/05 16:07:51;;;;;;;;;;;;;;;;;;5055634;28;20398;-89
2023/12/05 16:10:18;;;;;;;;;;;;;;;;;;5056790;28;19979;-89
2023/12/05 16:12:51;;;;;;;;;;;;;;;;;;5056149;28;19964;-90
2023/12/05 16:15:17;;;;;;;;;;;;;;;;;;5042494;28;19929;-89
2023/12/05 16:17:43;;;;;;;;;;;;;;;;;;5061417;28;20377;-89
2023/12/05 16:20:10;;;;;;;;;;;;;;;;;;5072194;28;19994;-89
2023/12/05 16:22:36;;;;;;;;;;;;;;;;;;5042730;28;19932;-90
2023/12/05 16:25:03;;;;;;;;;;;;;;;;;;5048814;28;19932;-89
2023/12/05 16:27:29;;;;;;;;;;;;;;;;;;5056004;28;19925;-89
2023/12/05 16:29:55;;;;;;;;;;;;;;;;;;5044867;28;19929;-89
2023/12/05 16:32:22;;;;;;;;;;;;;;;;;;5057669;28;19928;-89
2023/12/05 16:34:48;;;;;;;;;;;;;;;;;;5057691;28;19932;-89
2023/12/05 16:37:16;;;;;;;;;;;;;;;;;;5055574;28;19933;-88
2023/12/05 16:39:42;;;;;;;;;;;;;;;;;;5058128;28;19925;-88
2023/12/05 16:42:08;;;;;;;;;;;;;;;;;;5048269;28;19929;-88